Wind Cave National Park, SD

8:19 PM MDT on August 27, 2016 (GMT -0600)
Hay Creek Road | | Change Station

Elev 5325 ft 43.70 °N, 103.67 °W | Updated 16 seconds ago

Clear
Clear
65.7 °F
Feels Like 65.7 °F
N
0.0
Wind Variable Wind from East
Gusts 0.0 mph

Today
High -- | Low -- °F
--% Chance of Precip.
Yesterday
High -- | Low -- °F
Precip. -- in
Pressure 29.89 in
Visibility 10.0 miles
Clouds Clear
Dew Point 44 °F
Humidity 45%
Rainfall 0.00 in
Snow Depth Not available.
6:13 AM 7:37 PM
Waning Crescent, 19% visible
METAR KCUT 280153Z AUTO 15004KT 10SM CLR 19/05 A3006 RMK AO2 SLP122 T01940050
Pressure 29.89 in
Visibility 10.0 miles
Clouds Clear
Dew Point 44 °F
Humidity 45%
Rainfall 0.00 in
Snow Depth Not available.
6:13 AM 7:37 PM
Waning Crescent, 19% visible
METAR KCUT 280153Z AUTO 15004KT 10SM CLR 19/05 A3006 RMK AO2 SLP122 T01940050

10-Day Weather Forecast

Almanac

Astronomy

Aug. 27, 2016 Rise Set
Actual Time
Civil Twilight
Nautical Twilight
Astronomical Twilight
Moon
Length of Visible Light
Length of Day
Tomorrow will be .
, % of the Moon is Illuminated

Today's Extremes

State Highs State Lows

Community

WunderPhotos

Upload Photos

1,935,493 photos uploaded!

WunderBlog® & News

Nearby

Air Quality

  Air Quality AQ Index Pollutant
Not available.

Snow Depth

Station Depth Elevation

Earthquake Activity

City Distance Mag. Time & Date
Minimum magnitude displayed is 2.5.

Coastal Water Temperatures

Place Temperature

Stations

Nearby Weather Stations

Station Location Temp. Windchill Dew Point Humidity Wind Precip. Elev Updated Type
                   

Watches & Warnings

There are currently no watches in effect.